sensor_id;sensor_type;location;lat;lon;timestamp;pressure;altitude;pressure_sealevel;temperature;humidity
77147;BME280;66121;52.584;9.694;2023-08-08T00:01:48;100757.41;;;11.96;95.59
77147;BME280;66121;52.584;9.694;2023-08-08T00:04:34;100734.84;;;11.87;95.58
77147;BME280;66121;52.584;9.694;2023-08-08T00:07:19;100732.88;;;11.87;95.59
77147;BME280;66121;52.584;9.694;2023-08-08T00:10:05;100745.91;;;11.83;96.10
77147;BME280;66121;52.584;9.694;2023-08-08T00:12:51;100733.66;;;11.81;96.14
77147;BME280;66121;52.584;9.694;2023-08-08T00:15:37;100726.16;;;11.92;96.38
77147;BME280;66121;52.584;9.694;2023-08-08T00:18:22;100730.94;;;11.91;97.08
77147;BME280;66121;52.584;9.694;2023-08-08T00:21:08;100735.69;;;12.01;96.97
77147;BME280;66121;52.584;9.694;2023-08-08T00:23:54;100732.88;;;11.94;96.87
77147;BME280;66121;52.584;9.694;2023-08-08T00:26:39;100715.09;;;11.92;97.54
77147;BME280;66121;52.584;9.694;2023-08-08T00:29:25;100729.78;;;12.06;96.94
77147;BME280;66121;52.584;9.694;2023-08-08T00:32:11;100727.00;;;12.17;97.23
77147;BME280;66121;52.584;9.694;2023-08-08T00:34:56;100721.88;;;12.22;96.74
77147;BME280;66121;52.584;9.694;2023-08-08T00:37:42;100714.38;;;12.19;96.93
77147;BME280;66121;52.584;9.694;2023-08-08T00:40:28;100706.88;;;12.23;97.02
77147;BME280;66121;52.584;9.694;2023-08-08T00:43:13;100706.47;;;12.14;97.23
77147;BME280;66121;52.584;9.694;2023-08-08T00:45:59;100695.41;;;12.14;97.02
77147;BME280;66121;52.584;9.694;2023-08-08T00:48:44;100708.84;;;12.23;96.78
77147;BME280;66121;52.584;9.694;2023-08-08T00:51:30;100706.88;;;12.20;96.67
77147;BME280;66121;52.584;9.694;2023-08-08T00:54:16;100679.19;;;12.09;97.77
77147;BME280;66121;52.584;9.694;2023-08-08T00:57:02;100710.44;;;12.13;97.41
77147;BME280;66121;52.584;9.694;2023-08-08T00:59:48;100702.13;;;12.13;98.59
77147;BME280;66121;52.584;9.694;2023-08-08T01:02:33;100703.31;;;12.19;98.05
77147;BME280;66121;52.584;9.694;2023-08-08T01:05:19;100698.56;;;12.20;97.69
77147;BME280;66121;52.584;9.694;2023-08-08T01:08:06;100706.88;;;12.20;98.91
77147;BME280;66121;52.584;9.694;2023-08-08T01:10:52;100706.09;;;12.16;98.69
77147;BME280;66121;52.584;9.694;2023-08-08T01:13:39;100701.75;;;12.18;98.57
77147;BME280;66121;52.584;9.694;2023-08-08T01:16:26;100708.06;;;12.29;98.56
77147;BME280;66121;52.584;9.694;2023-08-08T01:19:16;100708.06;;;12.29;99.03
77147;BME280;66121;52.584;9.694;2023-08-08T01:22:14;100706.88;;;12.27;98.73
77147;BME280;66121;52.584;9.694;2023-08-08T01:25:04;100694.63;;;12.32;98.20
77147;BME280;66121;52.584;9.694;2023-08-08T01:27:50;100691.47;;;12.26;98.61
77147;BME280;66121;52.584;9.694;2023-08-08T01:30:36;100683.94;;;12.19;99.64
77147;BME280;66121;52.584;9.694;2023-08-08T01:33:21;100672.47;;;12.10;99.33
77147;BME280;66121;52.584;9.694;2023-08-08T01:36:15;100675.66;;;12.16;100.00
77147;BME280;66121;52.584;9.694;2023-08-08T01:39:07;100687.53;;;12.16;100.00
77147;BME280;66121;52.584;9.694;2023-08-08T01:41:56;100682.38;;;12.11;100.00
77147;BME280;66121;52.584;9.694;2023-08-08T01:44:44;100670.91;;;11.99;100.00
77147;BME280;66121;52.584;9.694;2023-08-08T01:47:30;100659.03;;;11.98;100.00
77147;BME280;66121;52.584;9.694;2023-08-08T01:50:16;100679.22;;;12.13;100.00
77147;BME280;66121;52.584;9.694;2023-08-08T01:53:02;100673.25;;;12.07;100.00
77147;BME280;66121;52.584;9.694;2023-08-08T01:55:48;100664.16;;;12.07;100.00
77147;BME280;66121;52.584;9.694;2023-08-08T01:58:33;100670.88;;;12.02;100.00
77147;BME280;66121;52.584;9.694;2023-08-08T02:01:19;100674.84;;;12.12;100.00
77147;BME280;66121;52.584;9.694;2023-08-08T02:04:05;100670.91;;;12.16;100.00
77147;BME280;66121;52.584;9.694;2023-08-08T02:06:50;100666.56;;;12.19;100.00
77147;BME280;66121;52.584;9.694;2023-08-08T02:09:36;100667.75;;;12.18;100.00
77147;BME280;66121;52.584;9.694;2023-08-08T02:12:22;100657.47;;;12.22;100.00
77147;BME280;66121;52.584;9.694;2023-08-08T02:15:07;100653.91;;;12.18;100.00
77147;BME280;66121;52.584;9.694;2023-08-08T02:17:53;100653.91;;;12.18;100.00
77147;BME280;66121;52.584;9.694;2023-08-08T02:20:39;100669.72;;;12.28;100.00
77147;BME280;66121;52.584;9.694;2023-08-08T02:23:24;100665.38;;;12.23;100.00
77147;BME280;66121;52.584;9.694;2023-08-08T02:26:11;100661.81;;;12.16;100.00
77147;BME280;66121;52.584;9.694;2023-08-08T02:28:57;100656.69;;;12.18;100.00
77147;BME280;66121;52.584;9.694;2023-08-08T02:31:43;100651.53;;;12.13;100.00
77147;BME280;66121;52.584;9.694;2023-08-08T02:34:28;100663.78;;;12.22;100.00
77147;BME280;66121;52.584;9.694;2023-08-08T02:37:14;100650.38;;;12.21;100.00
77147;BME280;66121;52.584;9.694;2023-08-08T02:39:59;100651.53;;;12.20;100.00
77147;BME280;66121;52.584;9.694;2023-08-08T02:42:45;100657.09;;;12.31;100.00
77147;BME280;66121;52.584;9.694;2023-08-08T02:45:31;100647.59;;;12.28;100.00
77147;BME280;66121;52.584;9.694;2023-08-08T02:48:17;100655.09;;;12.35;100.00
77147;BME280;66121;52.584;9.694;2023-08-08T02:51:03;100655.88;;;12.32;100.00
77147;BME280;66121;52.584;9.694;2023-08-08T02:53:48;100663.41;;;12.49;100.00
77147;BME280;66121;52.584;9.694;2023-08-08T02:56:34;100650.75;;;12.41;100.00
77147;BME280;66121;52.584;9.694;2023-08-08T02:59:19;100643.25;;;12.38;100.00
77147;BME280;66121;52.584;9.694;2023-08-08T03:02:06;100649.16;;;12.47;100.00
77147;BME280;66121;52.584;9.694;2023-08-08T03:04:52;100652.34;;;12.56;100.00
77147;BME280;66121;52.584;9.694;2023-08-08T03:07:37;100652.72;;;12.51;100.00
77147;BME280;66121;52.584;9.694;2023-08-08T03:10:23;100653.88;;;12.57;100.00
77147;BME280;66121;52.584;9.694;2023-08-08T03:13:08;100653.50;;;12.62;100.00
77147;BME280;66121;52.584;9.694;2023-08-08T03:15:54;100641.63;;;12.65;100.00
77147;BME280;66121;52.584;9.694;2023-08-08T03:18:42;100649.94;;;12.68;100.00
77147;BME280;66121;52.584;9.694;2023-08-08T03:21:27;100619.50;;;12.58;100.00
77147;BME280;66121;52.584;9.694;2023-08-08T03:24:13;100646.34;;;12.75;100.00
77147;BME280;66121;52.584;9.694;2023-08-08T03:26:58;100653.47;;;12.79;100.00
77147;BME280;66121;52.584;9.694;2023-08-08T03:29:44;100654.25;;;12.80;100.00
77147;BME280;66121;52.584;9.694;2023-08-08T03:32:30;100648.31;;;12.85;100.00
77147;BME280;66121;52.584;9.694;2023-08-08T03:35:15;100643.16;;;12.87;100.00
77147;BME280;66121;52.584;9.694;2023-08-08T03:38:01;100637.63;;;12.87;100.00
77147;BME280;66121;52.584;9.694;2023-08-08T03:40:48;100648.25;;;12.99;100.00
77147;BME280;66121;52.584;9.694;2023-08-08T03:43:33;100628.53;;;12.90;100.00
77147;BME280;66121;52.584;9.694;2023-08-08T03:46:19;100638.78;;;12.97;100.00
77147;BME280;66121;52.584;9.694;2023-08-08T03:49:04;100634.03;;;12.97;100.00
77147;BME280;66121;52.584;9.694;2023-08-08T03:51:50;100645.13;;;13.01;100.00
77147;BME280;66121;52.584;9.694;2023-08-08T03:54:36;100638.78;;;13.00;100.00
77147;BME280;66121;52.584;9.694;2023-08-08T03:57:21;100625.72;;;13.01;100.00
77147;BME280;66121;52.584;9.694;2023-08-08T04:00:07;100639.97;;;13.03;100.00
77147;BME280;66121;52.584;9.694;2023-08-08T04:02:53;100645.13;;;13.11;100.00
77147;BME280;66121;52.584;9.694;2023-08-08T04:05:39;100630.06;;;13.05;100.00
77147;BME280;66121;52.584;9.694;2023-08-08T04:08:25;100639.56;;;13.08;100.00
77147;BME280;66121;52.584;9.694;2023-08-08T04:11:10;100643.16;;;13.08;100.00
77147;BME280;66121;52.584;9.694;2023-08-08T04:13:56;100624.53;;;13.02;100.00
77147;BME280;66121;52.584;9.694;2023-08-08T04:16:42;100636.81;;;13.11;100.00
77147;BME280;66121;52.584;9.694;2023-08-08T04:19:27;100638.75;;;13.14;100.00
77147;BME280;66121;52.584;9.694;2023-08-08T04:22:13;100641.56;;;13.11;100.00
77147;BME280;66121;52.584;9.694;2023-08-08T04:24:58;100633.59;;;13.16;100.00
77147;BME280;66121;52.584;9.694;2023-08-08T04:27:44;100630.81;;;13.16;100.00
77147;BME280;66121;52.584;9.694;2023-08-08T04:30:30;100629.25;;;13.15;100.00
77147;BME280;66121;52.584;9.694;2023-08-08T04:33:15;100633.22;;;13.18;100.00
77147;BME280;66121;52.584;9.694;2023-08-08T04:36:01;100645.06;;;13.22;100.00
77147;BME280;66121;52.584;9.694;2023-08-08T04:38:47;100617.81;;;13.13;100.00
77147;BME280;66121;52.584;9.694;2023-08-08T04:41:32;100621.72;;;13.23;100.00
77147;BME280;66121;52.584;9.694;2023-08-08T04:44:18;100617.34;;;13.22;100.00
77147;BME280;66121;52.584;9.694;2023-08-08T04:47:04;100629.56;;;13.31;100.00
77147;BME280;66121;52.584;9.694;2023-08-08T04:49:50;100633.13;;;13.32;100.00
77147;BME280;66121;52.584;9.694;2023-08-08T04:52:35;100604.28;;;13.19;100.00
77147;BME280;66121;52.584;9.694;2023-08-08T04:55:21;100619.66;;;13.34;100.00
77147;BME280;66121;52.584;9.694;2023-08-08T04:58:07;100620.06;;;13.36;100.00
77147;BME280;66121;52.584;9.694;2023-08-08T05:00:52;100602.28;;;13.33;100.00
77147;BME280;66121;52.584;9.694;2023-08-08T05:03:38;100614.13;;;13.41;100.00
77147;BME280;66121;52.584;9.694;2023-08-08T05:06:23;100601.47;;;13.33;100.00
77147;BME280;66121;52.584;9.694;2023-08-08T05:09:09;100610.91;;;13.46;100.00
77147;BME280;66121;52.584;9.694;2023-08-08T05:11:55;100604.97;;;13.47;100.00
77147;BME280;66121;52.584;9.694;2023-08-08T05:14:40;100600.59;;;13.53;100.00
77147;BME280;66121;52.584;9.694;2023-08-08T05:17:26;100611.63;;;13.57;100.00
77147;BME280;66121;52.584;9.694;2023-08-08T05:20:11;100613.59;;;13.60;100.00
77147;BME280;66121;52.584;9.694;2023-08-08T05:22:57;100613.97;;;13.62;100.00
77147;BME280;66121;52.584;9.694;2023-08-08T05:25:43;100617.94;;;13.61;100.00
77147;BME280;66121;52.584;9.694;2023-08-08T05:28:29;100618.28;;;13.70;100.00
77147;BME280;66121;52.584;9.694;2023-08-08T05:31:14;100618.25;;;13.74;100.00
77147;BME280;66121;52.584;9.694;2023-08-08T05:34:00;100620.53;;;13.89;100.00
77147;BME280;66121;52.584;9.694;2023-08-08T05:36:46;100624.09;;;13.93;100.00
77147;BME280;66121;52.584;9.694;2023-08-08T05:39:31;100615.59;;;14.11;100.00
77147;BME280;66121;52.584;9.694;2023-08-08T05:42:17;100609.97;;;14.21;98.50
77147;BME280;66121;52.584;9.694;2023-08-08T05:45:03;100621.00;;;14.36;98.60
77147;BME280;66121;52.584;9.694;2023-08-08T05:47:48;100637.59;;;14.43;98.12
77147;BME280;66121;52.584;9.694;2023-08-08T05:50:34;100608.50;;;14.54;96.96
77147;BME280;66121;52.584;9.694;2023-08-08T05:53:20;100631.03;;;14.63;95.93
77147;BME280;66121;52.584;9.694;2023-08-08T05:56:05;100635.94;;;14.90;96.51
77147;BME280;66121;52.584;9.694;2023-08-08T05:58:51;100641.78;;;15.32;94.69
77147;BME280;66121;52.584;9.694;2023-08-08T06:01:36;100643.63;;;15.42;93.23
77147;BME280;66121;52.584;9.694;2023-08-08T06:04:22;100653.00;;;15.86;90.97
77147;BME280;66121;52.584;9.694;2023-08-08T06:07:08;100644.59;;;15.63;90.13
77147;BME280;66121;52.584;9.694;2023-08-08T06:09:53;100634.28;;;15.26;91.70
77147;BME280;66121;52.584;9.694;2023-08-08T06:12:39;100627.78;;;15.06;93.14
77147;BME280;66121;52.584;9.694;2023-08-08T06:15:25;100620.16;;;14.79;94.38
77147;BME280;66121;52.584;9.694;2023-08-08T06:18:11;100642.00;;;15.15;94.34
77147;BME280;66121;52.584;9.694;2023-08-08T06:20:56;100635.69;;;15.41;92.13
77147;BME280;66121;52.584;9.694;2023-08-08T06:23:42;100648.69;;;15.81;92.50
77147;BME280;66121;52.584;9.694;2023-08-08T06:26:28;100635.00;;;15.67;90.46
77147;BME280;66121;52.584;9.694;2023-08-08T06:29:13;100644.72;;;15.52;92.06
77147;BME280;66121;52.584;9.694;2023-08-08T06:31:59;100622.09;;;15.16;92.90
77147;BME280;66121;52.584;9.694;2023-08-08T06:34:45;100623.84;;;15.03;92.83
77147;BME280;66121;52.584;9.694;2023-08-08T06:37:31;100645.31;;;15.67;93.00
77147;BME280;66121;52.584;9.694;2023-08-08T06:40:17;100622.75;;;15.61;93.01
77147;BME280;66121;52.584;9.694;2023-08-08T06:43:02;100640.94;;;15.66;92.91
77147;BME280;66121;52.584;9.694;2023-08-08T06:45:48;100640.59;;;15.64;90.59
77147;BME280;66121;52.584;9.694;2023-08-08T06:48:34;100639.97;;;15.79;90.63
77147;BME280;66121;52.584;9.694;2023-08-08T06:51:20;100628.41;;;15.81;91.20
77147;BME280;66121;52.584;9.694;2023-08-08T06:54:05;100619.69;;;15.52;90.08
77147;BME280;66121;52.584;9.694;2023-08-08T06:56:51;100628.56;;;15.40;91.13
77147;BME280;66121;52.584;9.694;2023-08-08T06:59:38;100634.06;;;15.43;92.07
77147;BME280;66121;52.584;9.694;2023-08-08T07:02:23;100645.69;;;15.69;90.94
77147;BME280;66121;52.584;9.694;2023-08-08T07:05:09;100649.59;;;15.75;90.45
77147;BME280;66121;52.584;9.694;2023-08-08T07:07:55;100658.97;;;16.61;88.66
77147;BME280;66121;52.584;9.694;2023-08-08T07:10:41;100646.38;;;16.96;85.23
77147;BME280;66121;52.584;9.694;2023-08-08T07:13:27;100630.22;;;16.67;83.53
77147;BME280;66121;52.584;9.694;2023-08-08T07:16:12;100632.63;;;16.65;85.31
77147;BME280;66121;52.584;9.694;2023-08-08T07:18:58;100627.53;;;16.37;85.49
77147;BME280;66121;52.584;9.694;2023-08-08T07:21:43;100637.66;;;16.28;86.97
77147;BME280;66121;52.584;9.694;2023-08-08T07:24:29;100614.13;;;16.05;87.85
77147;BME280;66121;52.584;9.694;2023-08-08T07:27:15;100620.69;;;16.19;87.50
77147;BME280;66121;52.584;9.694;2023-08-08T07:30:00;100626.50;;;16.74;85.95
77147;BME280;66121;52.584;9.694;2023-08-08T07:32:47;100630.09;;;17.33;84.20
77147;BME280;66121;52.584;9.694;2023-08-08T07:35:33;100610.44;;;17.21;81.22
77147;BME280;66121;52.584;9.694;2023-08-08T07:38:19;100606.22;;;17.13;80.75
77147;BME280;66121;52.584;9.694;2023-08-08T07:41:04;100593.66;;;17.05;80.59
77147;BME280;66121;52.584;9.694;2023-08-08T07:43:50;100591.50;;;16.93;78.77
77147;BME280;66121;52.584;9.694;2023-08-08T07:46:36;100592.78;;;16.88;79.28
77147;BME280;66121;52.584;9.694;2023-08-08T07:49:22;100605.72;;;16.79;81.82
77147;BME280;66121;52.584;9.694;2023-08-08T07:52:07;100592.63;;;16.75;80.14
77147;BME280;66121;52.584;9.694;2023-08-08T07:54:53;100599.00;;;16.96;81.52
77147;BME280;66121;52.584;9.694;2023-08-08T07:57:39;100598.28;;;16.92;79.02
77147;BME280;66121;52.584;9.694;2023-08-08T08:00:24;100597.84;;;17.13;80.21
77147;BME280;66121;52.584;9.694;2023-08-08T08:03:10;100592.00;;;17.27;78.82
77147;BME280;66121;52.584;9.694;2023-08-08T08:05:56;100596.00;;;17.26;78.54
77147;BME280;66121;52.584;9.694;2023-08-08T08:08:41;100590.00;;;17.08;77.29
77147;BME280;66121;52.584;9.694;2023-08-08T08:11:27;100594.47;;;17.41;76.78
77147;BME280;66121;52.584;9.694;2023-08-08T08:14:12;100595.81;;;17.53;77.55
77147;BME280;66121;52.584;9.694;2023-08-08T08:16:58;100598.78;;;17.81;75.91
77147;BME280;66121;52.584;9.694;2023-08-08T08:19:44;100598.44;;;17.79;75.13
77147;BME280;66121;52.584;9.694;2023-08-08T08:22:29;100604.28;;;18.33;73.77
77147;BME280;66121;52.584;9.694;2023-08-08T08:25:15;100588.81;;;17.80;75.71
77147;BME280;66121;52.584;9.694;2023-08-08T08:28:00;100577.56;;;17.12;75.85
77147;BME280;66121;52.584;9.694;2023-08-08T08:30:46;100583.22;;;16.89;76.27
77147;BME280;66121;52.584;9.694;2023-08-08T08:33:32;100565.00;;;16.65;78.12
77147;BME280;66121;52.584;9.694;2023-08-08T08:36:18;100576.34;;;16.94;78.85
77147;BME280;66121;52.584;9.694;2023-08-08T08:39:03;100577.03;;;17.73;75.10
77147;BME280;66121;52.584;9.694;2023-08-08T08:41:54;100564.84;;;17.67;74.53
77147;BME280;66121;52.584;9.694;2023-08-08T08:44:42;100541.88;;;17.75;72.20
77147;BME280;66121;52.584;9.694;2023-08-08T08:47:30;100562.47;;;17.81;73.36
77147;BME280;66121;52.584;9.694;2023-08-08T08:50:17;100576.06;;;18.44;71.61
77147;BME280;66121;52.584;9.694;2023-08-08T08:53:03;100580.09;;;18.59;71.71
77147;BME280;66121;52.584;9.694;2023-08-08T08:55:50;100570.00;;;18.17;70.15
77147;BME280;66121;52.584;9.694;2023-08-08T08:58:36;100572.97;;;18.10;72.83
77147;BME280;66121;52.584;9.694;2023-08-08T09:01:23;100568.47;;;18.28;73.58
77147;BME280;66121;52.584;9.694;2023-08-08T09:04:09;100572.13;;;18.41;72.02
77147;BME280;66121;52.584;9.694;2023-08-08T09:06:55;100571.13;;;18.93;69.44
77147;BME280;66121;52.584;9.694;2023-08-08T09:09:44;100558.63;;;19.89;66.24
77147;BME280;66121;52.584;9.694;2023-08-08T09:12:30;100537.38;;;19.79;64.42
77147;BME280;66121;52.584;9.694;2023-08-08T09:15:17;100536.25;;;18.97;66.47
77147;BME280;66121;52.584;9.694;2023-08-08T09:18:02;100516.16;;;18.45;66.99
77147;BME280;66121;52.584;9.694;2023-08-08T09:20:48;100553.31;;;19.28;66.50
77147;BME280;66121;52.584;9.694;2023-08-08T09:23:37;100559.03;;;20.25;63.36
77147;BME280;66121;52.584;9.694;2023-08-08T09:26:24;100556.19;;;20.38;60.86
77147;BME280;66121;52.584;9.694;2023-08-08T09:29:13;100529.00;;;18.58;68.11
77147;BME280;66121;52.584;9.694;2023-08-08T09:32:03;100566.41;;;17.12;83.28
77147;BME280;66121;52.584;9.694;2023-08-08T09:34:51;100575.41;;;16.61;86.79
77147;BME280;66121;52.584;9.694;2023-08-08T09:37:37;100551.50;;;16.40;87.03
77147;BME280;66121;52.584;9.694;2023-08-08T09:40:23;100550.06;;;16.32;89.36
77147;BME280;66121;52.584;9.694;2023-08-08T09:43:09;100551.56;;;16.37;89.03
77147;BME280;66121;52.584;9.694;2023-08-08T09:45:54;100550.72;;;16.40;89.79
77147;BME280;66121;52.584;9.694;2023-08-08T09:48:40;100562.41;;;16.74;87.05
77147;BME280;66121;52.584;9.694;2023-08-08T09:51:26;100592.50;;;18.26;82.35
77147;BME280;66121;52.584;9.694;2023-08-08T09:54:13;100589.00;;;18.83;80.53
77147;BME280;66121;52.584;9.694;2023-08-08T09:56:59;100596.69;;;19.49;79.87
77147;BME280;66121;52.584;9.694;2023-08-08T09:59:45;100547.06;;;19.24;71.83
77147;BME280;66121;52.584;9.694;2023-08-08T10:02:32;100572.75;;;19.85;71.59
77147;BME280;66121;52.584;9.694;2023-08-08T10:05:18;100545.97;;;19.72;68.91
77147;BME280;66121;52.584;9.694;2023-08-08T10:08:04;100570.72;;;20.58;70.90
77147;BME280;66121;52.584;9.694;2023-08-08T10:10:50;100529.16;;;19.34;70.19
77147;BME280;66121;52.584;9.694;2023-08-08T10:13:36;100537.75;;;18.73;72.39
77147;BME280;66121;52.584;9.694;2023-08-08T10:16:22;100539.41;;;18.42;72.31
77147;BME280;66121;52.584;9.694;2023-08-08T10:19:09;100530.84;;;18.33;75.27
77147;BME280;66121;52.584;9.694;2023-08-08T10:21:58;100564.25;;;19.51;73.84
77147;BME280;66121;52.584;9.694;2023-08-08T10:24:47;100539.19;;;20.32;69.66
77147;BME280;66121;52.584;9.694;2023-08-08T10:27:35;100557.59;;;21.11;67.83
77147;BME280;66121;52.584;9.694;2023-08-08T10:30:21;100567.66;;;21.92;66.76
77147;BME280;66121;52.584;9.694;2023-08-08T10:33:15;100525.16;;;20.32;66.60
77147;BME280;66121;52.584;9.694;2023-08-08T10:36:03;100515.97;;;19.72;66.19
77147;BME280;66121;52.584;9.694;2023-08-08T10:38:49;100504.09;;;19.30;65.08
77147;BME280;66121;52.584;9.694;2023-08-08T10:41:44;100504.28;;;18.98;66.18
77147;BME280;66121;52.584;9.694;2023-08-08T10:44:31;100525.28;;;19.69;65.75
77147;BME280;66121;52.584;9.694;2023-08-08T10:47:16;100515.91;;;20.44;64.61
77147;BME280;66121;52.584;9.694;2023-08-08T10:50:11;100504.94;;;20.03;64.34
77147;BME280;66121;52.584;9.694;2023-08-08T10:52:57;100513.53;;;20.77;63.01
77147;BME280;66121;52.584;9.694;2023-08-08T10:55:43;100506.22;;;20.80;62.56
77147;BME280;66121;52.584;9.694;2023-08-08T10:58:37;100500.63;;;20.80;59.65
77147;BME280;66121;52.584;9.694;2023-08-08T11:01:27;100505.13;;;20.99;59.93
77147;BME280;66121;52.584;9.694;2023-08-08T11:04:13;100465.16;;;20.08;58.23
77147;BME280;66121;52.584;9.694;2023-08-08T11:06:59;100488.66;;;21.10;56.33
77147;BME280;66121;52.584;9.694;2023-08-08T11:09:45;100483.69;;;20.62;57.98
77147;BME280;66121;52.584;9.694;2023-08-08T11:12:31;100471.22;;;20.41;58.61
77147;BME280;66121;52.584;9.694;2023-08-08T11:15:17;100501.72;;;21.04;60.88
77147;BME280;66121;52.584;9.694;2023-08-08T11:18:03;100505.31;;;21.84;56.40
77147;BME280;66121;52.584;9.694;2023-08-08T11:20:49;100481.72;;;21.63;57.51
77147;BME280;66121;52.584;9.694;2023-08-08T11:23:35;100467.84;;;21.20;56.00
77147;BME280;66121;52.584;9.694;2023-08-08T11:26:23;100480.03;;;21.84;54.48
77147;BME280;66121;52.584;9.694;2023-08-08T11:29:09;100460.44;;;20.83;58.18
77147;BME280;66121;52.584;9.694;2023-08-08T11:31:56;100471.72;;;21.53;55.46
77147;BME280;66121;52.584;9.694;2023-08-08T11:34:43;100432.19;;;20.99;50.94
77147;BME280;66121;52.584;9.694;2023-08-08T11:37:29;100446.22;;;20.77;55.39
77147;BME280;66121;52.584;9.694;2023-08-08T11:40:15;100460.59;;;21.41;55.56
77147;BME280;66121;52.584;9.694;2023-08-08T11:43:01;100447.53;;;20.85;56.84
77147;BME280;66121;52.584;9.694;2023-08-08T11:45:48;100444.75;;;20.94;53.96
77147;BME280;66121;52.584;9.694;2023-08-08T11:48:34;100449.34;;;20.79;54.43
77147;BME280;66121;52.584;9.694;2023-08-08T11:51:21;100436.88;;;20.15;56.92
77147;BME280;66121;52.584;9.694;2023-08-08T11:54:07;100445.63;;;19.83;58.30
77147;BME280;66121;52.584;9.694;2023-08-08T11:56:53;100448.16;;;19.90;60.37
77147;BME280;66121;52.584;9.694;2023-08-08T11:59:38;100437.66;;;19.94;58.12
77147;BME280;66121;52.584;9.694;2023-08-08T12:02:26;100456.13;;;19.91;59.99
77147;BME280;66121;52.584;9.694;2023-08-08T12:05:14;100457.44;;;20.00;61.32
77147;BME280;66121;52.584;9.694;2023-08-08T12:08:07;100464.91;;;19.68;62.05
77147;BME280;66121;52.584;9.694;2023-08-08T12:10:54;100467.09;;;19.39;63.49
77147;BME280;66121;52.584;9.694;2023-08-08T12:13:42;100464.31;;;18.85;68.31
77147;BME280;66121;52.584;9.694;2023-08-08T12:16:29;100483.81;;;19.01;72.71
77147;BME280;66121;52.584;9.694;2023-08-08T12:19:22;100473.28;;;19.05;70.67
77147;BME280;66121;52.584;9.694;2023-08-08T12:22:08;100481.88;;;18.86;70.29
77147;BME280;66121;52.584;9.694;2023-08-08T12:24:54;100461.34;;;18.51;69.48
77147;BME280;66121;52.584;9.694;2023-08-08T12:27:39;100446.59;;;18.06;67.31
77147;BME280;66121;52.584;9.694;2023-08-08T12:30:25;100463.59;;;18.40;66.51
77147;BME280;66121;52.584;9.694;2023-08-08T12:33:11;100465.50;;;18.59;64.81
77147;BME280;66121;52.584;9.694;2023-08-08T12:35:56;100462.19;;;18.77;64.59
77147;BME280;66121;52.584;9.694;2023-08-08T12:38:42;100455.34;;;18.78;63.91
77147;BME280;66121;52.584;9.694;2023-08-08T12:41:28;100456.06;;;18.82;63.52
77147;BME280;66121;52.584;9.694;2023-08-08T12:44:15;100468.22;;;18.75;64.92
77147;BME280;66121;52.584;9.694;2023-08-08T12:47:00;100465.03;;;18.60;67.09
77147;BME280;66121;52.584;9.694;2023-08-08T12:49:46;100466.88;;;18.80;66.85
77147;BME280;66121;52.584;9.694;2023-08-08T12:52:32;100472.75;;;18.56;66.65
77147;BME280;66121;52.584;9.694;2023-08-08T12:55:18;100451.13;;;18.16;66.08
77147;BME280;66121;52.584;9.694;2023-08-08T12:58:05;100440.69;;;17.87;67.64
77147;BME280;66121;52.584;9.694;2023-08-08T13:00:50;100481.88;;;17.83;69.32
77147;BME280;66121;52.584;9.694;2023-08-08T13:03:36;100504.13;;;17.71;73.33
77147;BME280;66121;52.584;9.694;2023-08-08T13:06:22;100511.56;;;17.06;75.71
77147;BME280;66121;52.584;9.694;2023-08-08T13:09:07;100505.47;;;16.55;77.38
77147;BME280;66121;52.584;9.694;2023-08-08T13:11:53;100512.44;;;16.44;77.83
77147;BME280;66121;52.584;9.694;2023-08-08T13:14:39;100511.69;;;16.63;76.65
77147;BME280;66121;52.584;9.694;2023-08-08T13:17:24;100513.63;;;16.43;78.02
77147;BME280;66121;52.584;9.694;2023-08-08T13:20:10;100483.28;;;16.29;80.08
77147;BME280;66121;52.584;9.694;2023-08-08T13:22:57;100496.97;;;16.62;79.63
77147;BME280;66121;52.584;9.694;2023-08-08T13:25:43;100504.75;;;16.91;75.86
77147;BME280;66121;52.584;9.694;2023-08-08T13:28:29;100527.00;;;17.82;76.69
77147;BME280;66121;52.584;9.694;2023-08-08T13:31:15;100519.66;;;18.78;72.52
77147;BME280;66121;52.584;9.694;2023-08-08T13:34:01;100517.72;;;19.16;70.98
77147;BME280;66121;52.584;9.694;2023-08-08T13:36:46;100502.06;;;19.31;68.85
77147;BME280;66121;52.584;9.694;2023-08-08T13:39:32;100523.56;;;19.72;69.66
77147;BME280;66121;52.584;9.694;2023-08-08T13:42:18;100521.47;;;19.76;68.74
77147;BME280;66121;52.584;9.694;2023-08-08T13:45:04;100481.81;;;19.77;65.65
77147;BME280;66121;52.584;9.694;2023-08-08T13:47:50;100526.28;;;20.22;67.92
77147;BME280;66121;52.584;9.694;2023-08-08T13:50:35;100514.94;;;19.91;66.25
77147;BME280;66121;52.584;9.694;2023-08-08T13:53:21;100492.13;;;19.68;65.27
77147;BME280;66121;52.584;9.694;2023-08-08T13:56:07;100504.38;;;18.95;69.62
77147;BME280;66121;52.584;9.694;2023-08-08T13:58:52;100496.19;;;18.30;71.45
77147;BME280;66121;52.584;9.694;2023-08-08T14:01:38;100507.88;;;17.80;73.79
77147;BME280;66121;52.584;9.694;2023-08-08T14:04:23;100503.09;;;17.29;81.17
77147;BME280;66121;52.584;9.694;2023-08-08T14:07:09;100505.47;;;16.75;84.12
77147;BME280;66121;52.584;9.694;2023-08-08T14:09:55;100494.53;;;16.84;86.58
77147;BME280;66121;52.584;9.694;2023-08-08T14:12:42;100518.91;;;17.52;85.21
77147;BME280;66121;52.584;9.694;2023-08-08T14:15:28;100525.13;;;17.23;87.33
77147;BME280;66121;52.584;9.694;2023-08-08T14:18:14;100505.41;;;16.79;86.59
77147;BME280;66121;52.584;9.694;2023-08-08T14:21:00;100516.75;;;17.07;85.88
77147;BME280;66121;52.584;9.694;2023-08-08T14:23:47;100520.69;;;17.62;85.37
77147;BME280;66121;52.584;9.694;2023-08-08T14:26:33;100505.78;;;17.68;82.15